Time;durP1;ratioP1;P1;durP2;ratioP2;P2;SDS_P1;SDS_P2;PMS_P1;PMS_P2;Temp;Humidity;BMP_temperature;BMP_pressure;BME280_temperature;BME280_humidity;BME280_pressure;Samples;Min_cycle;Max_cycle;Signal;HPM_P1;HPM_P2
2022/12/15 00:40:07;;;;;;;36.20;12.55;;;;;;;;;;4979517;28;20071;-79
2022/12/15 00:42:32;;;;;;;34.35;14.02;;;;;;;;;;4962483;28;20039;-80
2022/12/15 00:44:58;;;;;;;35.10;14.13;;;;;;;;;;4981835;28;20058;-81
2022/12/15 00:47:24;;;;;;;25.00;11.50;;;;;;;;;;4981642;28;20023;-82
2022/12/15 01:20:12;;;;;;;23.65;11.40;;;;;;;;;;4923972;29;20039;-79
2022/12/15 01:22:38;;;;;;;27.55;11.32;;;;;;;;;;4970011;28;20401;-80
2022/12/15 01:25:05;;;;;;;34.03;13.05;;;;;;;;;;4982176;28;20476;-81
2022/12/15 01:27:30;;;;;;;33.65;13.18;;;;;;;;;;4982818;28;20480;-81
2022/12/15 01:29:56;;;;;;;34.20;13.38;;;;;;;;;;4965612;28;20034;-79
2022/12/15 01:32:21;;;;;;;28.50;12.63;;;;;;;;;;4977934;28;20022;-77
2022/12/15 01:34:46;;;;;;;28.73;12.43;;;;;;;;;;4977920;28;20110;-80
2022/12/15 01:37:12;;;;;;;29.02;12.45;;;;;;;;;;4978243;28;20388;-77
2022/12/15 01:42:21;;;;;;;;;;;;;;;;;;4980277;28;20038;-79
2022/12/15 01:44:50;;;;;;;25.02;11.15;;;;;;;;;;4962152;28;19910;-79
2022/12/15 01:47:15;;;;;;;27.08;12.38;;;;;;;;;;4979929;28;20054;-82
2022/12/15 01:49:42;;;;;;;30.45;13.13;;;;;;;;;;4962745;28;20499;-81
2022/12/15 01:52:09;;;;;;;23.85;11.20;;;;;;;;;;4979827;28;20030;-80
2022/12/15 01:54:56;;;;;;;30.15;13.15;;;;;;;;;;4963202;28;20062;-79
2022/12/15 01:57:27;;;;;;;30.88;13.30;;;;;;;;;;4963025;28;20031;-81
2022/12/15 01:59:56;;;;;;;27.50;12.95;;;;;;;;;;4981014;28;20023;-80
2022/12/15 02:02:25;;;;;;;33.33;13.05;;;;;;;;;;4980633;28;20023;-81
2022/12/15 02:04:52;;;;;;;24.52;11.52;;;;;;;;;;4980273;28;20022;-80
2022/12/15 02:07:19;;;;;;;34.65;13.18;;;;;;;;;;4980502;28;20069;-80
2022/12/15 02:09:47;;;;;;;28.77;12.02;;;;;;;;;;4979740;28;20031;-81
2022/12/15 02:12:20;;;;;;;33.25;13.13;;;;;;;;;;4980304;28;20081;-79
2022/12/15 02:15:05;;;;;;;25.88;11.80;;;;;;;;;;4981858;28;20049;-80
2022/12/15 02:17:47;;;;;;;29.52;11.38;;;;;;;;;;4982356;28;20034;-79
2022/12/15 02:20:25;;;;;;;21.52;10.63;;;;;;;;;;4981688;28;20030;-79
2022/12/15 02:22:56;;;;;;;28.52;12.15;;;;;;;;;;4982059;28;20026;-81
2022/12/15 02:25:32;;;;;;;30.90;12.77;;;;;;;;;;4981820;28;20117;-80
2022/12/15 02:28:05;;;;;;;32.65;12.02;;;;;;;;;;4982208;28;20077;-80
2022/12/15 02:30:40;;;;;;;29.42;11.70;;;;;;;;;;4981302;28;20472;-80
2022/12/15 02:33:25;;;;;;;24.33;11.13;;;;;;;;;;4963440;28;20041;-79
2022/12/15 02:36:08;;;;;;;20.60;10.02;;;;;;;;;;4963989;28;20046;-80
2022/12/15 02:38:37;;;;;;;19.10;8.65;;;;;;;;;;4963822;28;20031;-79
2022/12/15 02:41:04;;;;;;;25.20;11.02;;;;;;;;;;4981589;28;20058;-81
2022/12/15 02:43:34;;;;;;;29.60;13.43;;;;;;;;;;4969289;28;20539;-80
2022/12/15 02:46:44;;;;;;;32.25;11.75;;;;;;;;;;4970349;28;20023;-80
2022/12/15 02:49:28;;;;;;;29.58;11.68;;;;;;;;;;4984801;28;20039;-81
2022/12/15 02:52:15;;;;;;;23.88;10.80;;;;;;;;;;4988014;28;20079;-81
2022/12/15 02:54:58;;;;;;;26.98;11.60;;;;;;;;;;4971023;28;20086;-80
2022/12/15 02:57:45;;;;;;;24.77;12.20;;;;;;;;;;4988346;28;20081;-80
2022/12/15 03:00:12;;;;;;;26.52;11.63;;;;;;;;;;4988679;28;20476;-80
2022/12/15 03:02:41;;;;;;;25.80;11.27;;;;;;;;;;4971517;28;20027;-80
2022/12/15 03:05:07;;;;;;;28.73;11.10;;;;;;;;;;4988588;28;20019;-80
2022/12/15 03:07:33;;;;;;;28.55;11.75;;;;;;;;;;4988154;28;20030;-78
2022/12/15 03:10:01;;;;;;;24.63;12.15;;;;;;;;;;4987622;28;20136;-79
2022/12/15 03:12:26;;;;;;;25.40;11.13;;;;;;;;;;4968324;28;20030;-80
2022/12/15 03:14:52;;;;;;;26.45;11.30;;;;;;;;;;4985488;28;20031;-80
2022/12/15 03:17:17;;;;;;;28.45;12.45;;;;;;;;;;4966650;28;20037;-79
2022/12/15 03:19:42;;;;;;;29.73;10.90;;;;;;;;;;4980913;28;20468;-77
2022/12/15 03:22:08;;;;;;;23.40;10.95;;;;;;;;;;4980615;28;20035;-77
2022/12/15 03:24:33;;;;;;;25.95;11.75;;;;;;;;;;4964411;28;20058;-80
2022/12/15 03:26:58;;;;;;;28.85;13.07;;;;;;;;;;4987126;28;20476;-78
2022/12/15 03:29:24;;;;;;;29.75;12.20;;;;;;;;;;4989735;28;20036;-81
2022/12/15 03:31:49;;;;;;;24.20;11.18;;;;;;;;;;4968350;28;20034;-79
2022/12/15 03:34:15;;;;;;;24.65;11.18;;;;;;;;;;4987092;28;20076;-84
2022/12/15 03:36:40;;;;;;;26.90;12.35;;;;;;;;;;4985294;28;20027;-80
2022/12/15 03:39:05;;;;;;;23.92;10.77;;;;;;;;;;4985414;28;20085;-81
2022/12/15 03:41:31;;;;;;;32.22;11.38;;;;;;;;;;4986405;28;20395;-81
2022/12/15 03:43:56;;;;;;;24.65;11.23;;;;;;;;;;4988384;28;20026;-80
2022/12/15 03:46:22;;;;;;;30.08;11.50;;;;;;;;;;4968879;28;20027;-80
2022/12/15 03:48:47;;;;;;;26.52;11.20;;;;;;;;;;4986869;28;20034;-79
2022/12/15 03:51:12;;;;;;;26.00;11.75;;;;;;;;;;4986505;28;20488;-80
2022/12/15 03:53:37;;;;;;;29.38;11.60;;;;;;;;;;4966703;28;20024;-79
2022/12/15 03:56:03;;;;;;;23.80;11.30;;;;;;;;;;4982378;28;20026;-80
2022/12/15 03:58:29;;;;;;;24.45;10.65;;;;;;;;;;4983386;28;20027;-81
2022/12/15 04:00:54;;;;;;;31.75;12.10;;;;;;;;;;4964869;28;20117;-80
2022/12/15 04:03:20;;;;;;;33.45;11.73;;;;;;;;;;4982411;28;20030;-79
2022/12/15 04:05:45;;;;;;;25.33;10.45;;;;;;;;;;4982711;28;20022;-80
2022/12/15 04:08:11;;;;;;;29.48;11.82;;;;;;;;;;4982321;28;20037;-80
2022/12/15 04:10:36;;;;;;;25.40;11.48;;;;;;;;;;4965008;28;20027;-79
2022/12/15 04:13:04;;;;;;;25.80;11.75;;;;;;;;;;4982396;28;20509;-83
2022/12/15 04:15:29;;;;;;;26.73;12.63;;;;;;;;;;4984332;28;20381;-79
2022/12/15 04:17:54;;;;;;;26.83;11.85;;;;;;;;;;4983857;28;20023;-80
2022/12/15 04:20:21;;;;;;;26.15;11.48;;;;;;;;;;4984059;28;20026;-79
2022/12/15 04:22:48;;;;;;;26.75;12.05;;;;;;;;;;4983389;28;20030;-80
2022/12/15 05:34:20;;;;;;;;;;;;;;;;;;4981616;28;20045;-80
2022/12/15 05:36:45;;;;;;;18.58;7.35;;;;;;;;;;4980811;28;19925;-79
2022/12/15 05:39:10;;;;;;;25.10;9.43;;;;;;;;;;4979736;28;20400;-80
2022/12/15 05:41:36;;;;;;;18.42;9.30;;;;;;;;;;4963026;28;20022;-80
2022/12/15 05:44:01;;;;;;;20.73;9.52;;;;;;;;;;4963096;28;20035;-80
2022/12/15 05:46:26;;;;;;;17.85;8.95;;;;;;;;;;4980145;28;20022;-80
2022/12/15 05:48:51;;;;;;;22.05;9.73;;;;;;;;;;4979876;28;20118;-80
2022/12/15 05:51:17;;;;;;;25.45;10.05;;;;;;;;;;4980080;28;20404;-80
2022/12/15 05:53:42;;;;;;;21.30;9.68;;;;;;;;;;4980267;28;20034;-80
2022/12/15 05:56:10;;;;;;;19.10;9.23;;;;;;;;;;4979560;28;20027;-80
2022/12/15 05:58:36;;;;;;;21.58;9.70;;;;;;;;;;4979246;28;20037;-81
2022/12/15 06:01:10;;;;;;;23.83;10.85;;;;;;;;;;4978889;28;20058;-80
2022/12/15 06:03:36;;;;;;;24.05;9.93;;;;;;;;;;4961167;28;20113;-80
2022/12/15 06:06:04;;;;;;;24.45;9.55;;;;;;;;;;4978472;28;20069;-80
2022/12/15 06:08:32;;;;;;;22.55;9.98;;;;;;;;;;4977636;28;20026;-80
2022/12/15 06:10:58;;;;;;;21.30;9.95;;;;;;;;;;4960942;28;20480;-80
2022/12/15 06:13:24;;;;;;;23.15;8.23;;;;;;;;;;4979322;28;20086;-80
2022/12/15 06:15:57;;;;;;;25.92;10.43;;;;;;;;;;4978576;28;20090;-80
2022/12/15 06:18:24;;;;;;;23.33;10.23;;;;;;;;;;4977564;28;20157;-80
2022/12/15 06:20:55;;;;;;;26.15;9.73;;;;;;;;;;4960999;28;20054;-80
2022/12/15 06:23:20;;;;;;;20.85;10.18;;;;;;;;;;4978431;28;20018;-80
2022/12/15 06:25:45;;;;;;;26.15;10.35;;;;;;;;;;4978403;28;20384;-80
2022/12/15 06:28:15;;;;;;;21.23;9.45;;;;;;;;;;4960986;28;20077;-80
2022/12/15 06:30:41;;;;;;;17.52;8.77;;;;;;;;;;4978487;28;20504;-80
2022/12/15 06:33:06;;;;;;;21.38;8.98;;;;;;;;;;4978136;28;20065;-78
2022/12/15 06:35:35;;;;;;;22.88;9.75;;;;;;;;;;4961286;28;20026;-80
2022/12/15 06:38:00;;;;;;;21.98;10.15;;;;;;;;;;4978915;28;20022;-80
2022/12/15 06:40:26;;;;;;;20.02;8.32;;;;;;;;;;4978974;28;20030;-79
2022/12/15 06:42:51;;;;;;;18.08;8.23;;;;;;;;;;4978857;28;20027;-80
2022/12/15 06:45:16;;;;;;;41.63;18.05;;;;;;;;;;4979143;28;20074;-79
2022/12/15 06:47:41;;;;;;;24.90;10.75;;;;;;;;;;4978903;28;20022;-80
2022/12/15 06:50:07;;;;;;;15.60;8.00;;;;;;;;;;4978105;28;20090;-79
2022/12/15 06:52:32;;;;;;;21.55;9.60;;;;;;;;;;4961107;28;20029;-78
2022/12/15 06:54:58;;;;;;;21.30;9.23;;;;;;;;;;4978606;28;20125;-79
2022/12/15 06:57:23;;;;;;;23.60;10.05;;;;;;;;;;4978828;28;20039;-79
2022/12/15 06:59:48;;;;;;;22.38;9.35;;;;;;;;;;4961527;28;20444;-79
2022/12/15 07:02:16;;;;;;;22.38;8.48;;;;;;;;;;4978676;28;20023;-82
2022/12/15 07:04:56;;;;;;;25.77;8.90;;;;;;;;;;4960405;28;20018;-80
2022/12/15 07:07:21;;;;;;;16.10;7.15;;;;;;;;;;4960763;28;20062;-80
2022/12/15 07:09:47;;;;;;;22.25;9.82;;;;;;;;;;4978411;28;20031;-80
2022/12/15 07:12:12;;;;;;;21.15;9.40;;;;;;;;;;4961044;28;20023;-81
2022/12/15 07:14:37;;;;;;;17.98;7.75;;;;;;;;;;4978384;28;20023;-79
2022/12/15 07:17:03;;;;;;;18.10;8.23;;;;;;;;;;4977382;28;20027;-79
2022/12/15 07:19:28;;;;;;;22.13;7.85;;;;;;;;;;4976893;28;20023;-80
2022/12/15 07:21:56;;;;;;;15.02;7.32;;;;;;;;;;4976952;28;20027;-80
2022/12/15 07:24:21;;;;;;;20.92;10.30;;;;;;;;;;4977009;28;20023;-79
2022/12/15 07:26:47;;;;;;;15.30;7.85;;;;;;;;;;4976597;28;20023;-81
2022/12/15 07:29:12;;;;;;;16.65;8.27;;;;;;;;;;4979143;28;20110;-79
2022/12/15 07:31:37;;;;;;;20.15;8.70;;;;;;;;;;4980525;28;20038;-80
2022/12/15 07:34:03;;;;;;;18.60;8.20;;;;;;;;;;4980408;28;20034;-80
2022/12/15 07:36:28;;;;;;;23.80;9.85;;;;;;;;;;4980971;28;20035;-80
2022/12/15 07:38:59;;;;;;;22.95;9.50;;;;;;;;;;4980289;28;20105;-80
2022/12/15 07:41:25;;;;;;;22.10;8.65;;;;;;;;;;4979860;28;20041;-80
2022/12/15 07:43:51;;;;;;;23.55;8.63;;;;;;;;;;4980581;28;20023;-80
2022/12/15 07:46:16;;;;;;;17.33;7.85;;;;;;;;;;4980700;28;20092;-80
2022/12/15 07:48:42;;;;;;;16.33;7.65;;;;;;;;;;4963586;28;20037;-81
2022/12/15 07:51:08;;;;;;;18.88;8.63;;;;;;;;;;4963934;28;20147;-80
2022/12/15 07:53:34;;;;;;;15.52;6.97;;;;;;;;;;4980174;28;20031;-81
2022/12/15 07:56:00;;;;;;;19.67;8.65;;;;;;;;;;4961107;28;20015;-79
2022/12/15 07:58:26;;;;;;;21.58;8.80;;;;;;;;;;4979057;28;20054;-81
2022/12/15 08:00:52;;;;;;;17.98;8.43;;;;;;;;;;4979240;28;20023;-80
2022/12/15 08:03:17;;;;;;;18.23;8.43;;;;;;;;;;4961796;28;20182;-80
2022/12/15 08:05:43;;;;;;;16.63;8.00;;;;;;;;;;4961715;28;20019;-80
2022/12/15 08:08:08;;;;;;;19.77;7.88;;;;;;;;;;4979932;28;20034;-79
2022/12/15 08:10:37;;;;;;;19.70;7.80;;;;;;;;;;4979049;28;20342;-79
2022/12/15 08:13:02;;;;;;;22.27;8.07;;;;;;;;;;4979334;28;20037;-79
2022/12/15 08:15:28;;;;;;;14.38;6.45;;;;;;;;;;4961665;28;20117;-80
2022/12/15 08:17:53;;;;;;;18.55;8.27;;;;;;;;;;4979124;28;20019;-80
2022/12/15 08:20:18;;;;;;;19.60;7.95;;;;;;;;;;4961704;28;20097;-80
2022/12/15 08:22:43;;;;;;;14.85;6.13;;;;;;;;;;4978936;28;20085;-80
2022/12/15 08:25:09;;;;;;;17.23;7.00;;;;;;;;;;4978644;28;20019;-80
2022/12/15 08:27:34;;;;;;;15.98;7.53;;;;;;;;;;4960985;28;20054;-80
2022/12/15 08:29:59;;;;;;;15.90;7.80;;;;;;;;;;4961637;28;20480;-84
2022/12/15 08:32:25;;;;;;;20.70;9.02;;;;;;;;;;4977807;28;20046;-81
2022/12/15 08:34:50;;;;;;;17.65;7.88;;;;;;;;;;4960575;28;20454;-79
2022/12/15 08:37:15;;;;;;;18.27;7.22;;;;;;;;;;4960714;28;20034;-79
2022/12/15 08:39:41;;;;;;;19.65;7.40;;;;;;;;;;4978520;28;20027;-80
2022/12/15 08:42:06;;;;;;;17.42;7.75;;;;;;;;;;4978111;28;20023;-80
2022/12/15 08:44:32;;;;;;;17.50;7.78;;;;;;;;;;4961087;28;20129;-80
2022/12/15 08:46:57;;;;;;;17.35;7.82;;;;;;;;;;4961188;28;20021;-78
2022/12/15 08:49:23;;;;;;;25.95;8.52;;;;;;;;;;4978384;28;20031;-82
2022/12/15 08:51:49;;;;;;;22.30;8.75;;;;;;;;;;4978801;28;20077;-80
2022/12/15 08:54:14;;;;;;;20.00;8.32;;;;;;;;;;4978597;28;20026;-81
2022/12/15 08:56:39;;;;;;;13.20;5.90;;;;;;;;;;4979417;28;20097;-81
2022/12/15 08:59:05;;;;;;;17.65;8.27;;;;;;;;;;4978799;28;20033;-81
2022/12/15 09:01:31;;;;;;;23.25;9.00;;;;;;;;;;4978141;28;20121;-81
2022/12/15 09:03:57;;;;;;;13.68;5.78;;;;;;;;;;4978376;28;20031;-82
2022/12/15 09:06:30;;;;;;;24.90;9.88;;;;;;;;;;4961508;28;20161;-81
2022/12/15 09:08:57;;;;;;;16.10;6.97;;;;;;;;;;4978838;28;20507;-82
2022/12/15 09:14:21;;;;;;;17.00;8.43;;;;;;;;;;4917871;29;20452;-82
2022/12/15 09:16:46;;;;;;;17.05;6.22;;;;;;;;;;4917814;29;20036;-80
2022/12/15 09:19:12;;;;;;;18.75;9.25;;;;;;;;;;4956676;28;20046;-80
2022/12/15 09:21:38;;;;;;;23.75;10.13;;;;;;;;;;4977920;28;20037;-79
2022/12/15 09:24:04;;;;;;;27.95;10.25;;;;;;;;;;4977977;28;20560;-80
2022/12/15 09:26:32;;;;;;;18.27;8.60;;;;;;;;;;4959848;28;20030;-80
2022/12/15 09:28:58;;;;;;;23.42;9.13;;;;;;;;;;4978003;28;20031;-81
2022/12/15 09:31:27;;;;;;;22.48;9.40;;;;;;;;;;4978091;28;20037;-81
2022/12/15 09:33:54;;;;;;;19.45;8.73;;;;;;;;;;4978772;28;20038;-81
2022/12/15 09:36:21;;;;;;;20.52;9.43;;;;;;;;;;4978565;28;20473;-81
2022/12/15 09:38:46;;;;;;;19.38;9.40;;;;;;;;;;4960873;28;20031;-81
2022/12/15 09:41:11;;;;;;;25.65;10.00;;;;;;;;;;4977513;28;20034;-81
2022/12/15 09:43:48;;;;;;;22.50;8.63;;;;;;;;;;4960458;28;20086;-81
2022/12/15 09:46:26;;;;;;;21.63;9.57;;;;;;;;;;4977884;28;20520;-80
2022/12/15 09:48:54;;;;;;;24.17;9.95;;;;;;;;;;4978301;28;20031;-80
2022/12/15 09:51:35;;;;;;;18.27;8.30;;;;;;;;;;4960117;28;20026;-81
2022/12/15 09:54:00;;;;;;;22.40;9.52;;;;;;;;;;4977910;28;20531;-82
2022/12/15 09:56:48;;;;;;;13.50;5.88;;;;;;;;;;4978067;28;20034;-82
2022/12/15 09:59:29;;;;;;;23.77;10.07;;;;;;;;;;4977894;28;20030;-80
2022/12/15 10:02:27;;;;;;;22.50;9.55;;;;;;;;;;4977680;28;20085;-81
2022/12/15 10:05:11;;;;;;;25.45;10.38;;;;;;;;;;4978903;28;20066;-81
2022/12/15 10:07:45;;;;;;;27.30;10.73;;;;;;;;;;4978308;28;20038;-80
2022/12/15 10:10:21;;;;;;;21.85;9.52;;;;;;;;;;4978623;28;20041;-82
2022/12/15 10:12:52;;;;;;;22.27;9.57;;;;;;;;;;4977473;28;20058;-82
2022/12/15 10:15:27;;;;;;;29.23;11.32;;;;;;;;;;4960063;28;20022;-81
2022/12/15 10:18:04;;;;;;;24.30;9.15;;;;;;;;;;4977679;28;20019;-81
2022/12/15 10:20:31;;;;;;;19.17;9.32;;;;;;;;;;4977719;28;20114;-81
2022/12/15 10:23:04;;;;;;;23.92;10.55;;;;;;;;;;4960647;28;20026;-80
2022/12/15 10:25:30;;;;;;;24.15;10.35;;;;;;;;;;4960186;28;20033;-81
2022/12/15 10:28:14;;;;;;;25.25;11.02;;;;;;;;;;4978203;28;20518;-81
2022/12/15 10:30:55;;;;;;;22.17;9.65;;;;;;;;;;4978344;28;20074;-81
2022/12/15 10:33:23;;;;;;;26.58;9.63;;;;;;;;;;4977464;28;20089;-81
2022/12/15 10:35:51;;;;;;;25.08;10.25;;;;;;;;;;4977988;28;20547;-81
2022/12/15 10:38:26;;;;;;;24.75;10.50;;;;;;;;;;4960245;28;20022;-81
2022/12/15 10:41:00;;;;;;;25.80;11.98;;;;;;;;;;4959770;28;20023;-81
2022/12/15 10:43:36;;;;;;;28.88;10.60;;;;;;;;;;4977611;28;20058;-82
2022/12/15 10:46:14;;;;;;;27.70;11.48;;;;;;;;;;4960356;28;20101;-80
2022/12/15 10:48:41;;;;;;;27.83;11.38;;;;;;;;;;4977747;28;20080;-81
2022/12/15 10:51:27;;;;;;;27.13;10.35;;;;;;;;;;4960045;28;20057;-80
2022/12/15 10:54:08;;;;;;;25.30;10.50;;;;;;;;;;4959989;28;20110;-81
2022/12/15 10:56:47;;;;;;;26.73;11.43;;;;;;;;;;4977831;28;20030;-82
2022/12/15 10:59:30;;;;;;;25.48;11.38;;;;;;;;;;4977546;28;20033;-81
2022/12/15 11:02:37;;;;;;;27.30;11.23;;;;;;;;;;4984256;23;20132;-82
2022/12/15 11:05:04;;;;;;;23.95;11.00;;;;;;;;;;4980162;28;20073;-82
2022/12/15 11:07:36;;;;;;;26.13;10.65;;;;;;;;;;4979105;28;20392;-82
2022/12/15 11:10:23;;;;;;;31.02;12.80;;;;;;;;;;4980273;28;20050;-82
2022/12/15 11:13:12;;;;;;;33.60;10.77;;;;;;;;;;4980365;28;20089;-81
2022/12/15 11:15:55;;;;;;;27.85;11.93;;;;;;;;;;4979628;28;20023;-82
2022/12/15 11:18:51;;;;;;;28.83;11.45;;;;;;;;;;4980912;28;20392;-83
2022/12/15 11:21:58;;;;;;;28.80;11.10;;;;;;;;;;4912509;28;20033;-83
2022/12/15 11:24:42;;;;;;;30.63;12.43;;;;;;;;;;4979112;28;20388;-80
2022/12/15 11:27:26;;;;;;;28.98;12.27;;;;;;;;;;4980754;28;20492;-79
2022/12/15 11:29:57;;;;;;;30.13;13.33;;;;;;;;;;4980715;28;20039;-80
2022/12/15 11:32:27;;;;;;;30.20;12.85;;;;;;;;;;4980557;28;20496;-81
2022/12/15 11:34:52;;;;;;;27.48;13.35;;;;;;;;;;4981197;28;20019;-82
2022/12/15 11:37:39;;;;;;;35.60;13.48;;;;;;;;;;4981259;28;20026;-81
2022/12/15 11:40:25;;;;;;;35.28;13.48;;;;;;;;;;4980043;28;20031;-81
2022/12/15 11:42:50;;;;;;;30.27;12.63;;;;;;;;;;4979055;28;20049;-81
2022/12/15 11:45:45;;;;;;;25.73;10.83;;;;;;;;;;4980170;28;20055;-84
2022/12/15 11:48:17;;;;;;;29.13;11.73;;;;;;;;;;4973899;28;20277;-82
2022/12/15 11:50:45;;;;;;;25.65;11.60;;;;;;;;;;4980971;28;20022;-82
2022/12/15 11:53:32;;;;;;;25.15;10.98;;;;;;;;;;4979626;28;20031;-81
2022/12/15 11:56:20;;;;;;;24.50;11.25;;;;;;;;;;4978969;28;20055;-82
2022/12/15 11:58:56;;;;;;;23.60;10.85;;;;;;;;;;4980426;28;20098;-83
2022/12/15 12:01:55;;;;;;;28.90;11.32;;;;;;;;;;4978830;28;20030;-82
2022/12/15 12:04:47;;;;;;;26.35;11.32;;;;;;;;;;4979422;28;20117;-82
2022/12/15 12:07:24;;;;;;;22.58;10.13;;;;;;;;;;4981065;28;20025;-81
2022/12/15 12:10:02;;;;;;;23.65;10.70;;;;;;;;;;4981634;28;20031;-81
2022/12/15 12:12:40;;;;;;;29.15;11.98;;;;;;;;;;4980412;28;20081;-82
2022/12/15 12:15:12;;;;;;;34.30;11.30;;;;;;;;;;4979978;28;20027;-82
2022/12/15 12:18:00;;;;;;;26.30;11.55;;;;;;;;;;4979176;28;20511;-82
2022/12/15 12:20:34;;;;;;;31.67;11.93;;;;;;;;;;4979224;28;20037;-82
2022/12/15 12:23:16;;;;;;;27.90;11.95;;;;;;;;;;4981113;28;20022;-83
2022/12/15 12:26:07;;;;;;;31.65;11.85;;;;;;;;;;4980456;28;20485;-82
2022/12/15 12:28:50;;;;;;;34.30;12.48;;;;;;;;;;4978989;28;20503;-80
2022/12/15 12:31:40;;;;;;;28.52;11.30;;;;;;;;;;4980222;28;20435;-82
2022/12/15 12:34:13;;;;;;;29.67;11.50;;;;;;;;;;4979529;28;20083;-82
2022/12/15 12:36:40;;;;;;;31.37;13.10;;;;;;;;;;4978294;28;20109;-84
2022/12/15 12:39:11;;;;;;;28.80;11.10;;;;;;;;;;4978773;28;20027;-81
2022/12/15 12:42:06;;;;;;;28.08;11.70;;;;;;;;;;4979680;28;20109;-81
2022/12/15 12:44:38;;;;;;;26.58;11.70;;;;;;;;;;4972217;28;20038;-80
2022/12/15 12:47:19;;;;;;;31.30;12.52;;;;;;;;;;4979624;28;20026;-80
2022/12/15 12:50:07;;;;;;;29.40;12.25;;;;;;;;;;4979114;28;20030;-82
2022/12/15 12:52:36;;;;;;;28.73;12.15;;;;;;;;;;4965036;28;20059;-82
2022/12/15 12:55:10;;;;;;;24.90;11.50;;;;;;;;;;4977980;28;20480;-80
2022/12/15 12:57:40;;;;;;;27.35;11.13;;;;;;;;;;4979280;28;20045;-80
2022/12/15 13:00:18;;;;;;;24.02;10.90;;;;;;;;;;4979312;28;20062;-81
2022/12/15 13:02:51;;;;;;;27.08;11.15;;;;;;;;;;4979630;28;20022;-81
2022/12/15 13:05:28;;;;;;;22.60;10.55;;;;;;;;;;4980055;28;20405;-81
2022/12/15 13:08:15;;;;;;;26.65;11.65;;;;;;;;;;4978376;28;20077;-80
2022/12/15 13:10:43;;;;;;;28.25;11.55;;;;;;;;;;4978682;28;20057;-82
2022/12/15 13:13:17;;;;;;;24.45;10.70;;;;;;;;;;4977818;28;20058;-81
2022/12/15 13:15:47;;;;;;;27.85;12.35;;;;;;;;;;4979084;28;20084;-81
2022/12/15 13:18:21;;;;;;;31.65;11.68;;;;;;;;;;4978804;28;20027;-81
2022/12/15 13:20:48;;;;;;;31.65;11.90;;;;;;;;;;4977675;28;20508;-81
2022/12/15 13:23:20;;;;;;;28.55;13.18;;;;;;;;;;4976977;28;20026;-81
2022/12/15 13:25:51;;;;;;;29.67;12.57;;;;;;;;;;4978224;28;20158;-79
2022/12/15 13:28:39;;;;;;;30.20;12.57;;;;;;;;;;4978278;28;20022;-80
2022/12/15 13:31:17;;;;;;;32.90;12.40;;;;;;;;;;4979688;28;20038;-82
2022/12/15 13:33:48;;;;;;;31.98;13.23;;;;;;;;;;4976920;28;20026;-81
2022/12/15 13:36:35;;;;;;;30.90;12.38;;;;;;;;;;4978894;28;20027;-79
2022/12/15 13:39:02;;;;;;;31.10;13.10;;;;;;;;;;4976807;28;20033;-81
2022/12/15 13:41:27;;;;;;;30.65;11.93;;;;;;;;;;4977990;28;20039;-82
2022/12/15 13:43:54;;;;;;;35.67;14.52;;;;;;;;;;4976789;28;20030;-80
2022/12/15 13:46:23;;;;;;;35.08;13.07;;;;;;;;;;4979349;28;20018;-79
2022/12/15 13:49:27;;;;;;;31.05;14.23;;;;;;;;;;4979094;28;20030;-81
2022/12/15 13:51:59;;;;;;;35.07;14.03;;;;;;;;;;4954835;28;20086;-82
2022/12/15 13:54:32;;;;;;;46.25;16.42;;;;;;;;;;4977296;28;20439;-81
2022/12/15 13:57:09;;;;;;;40.08;14.82;;;;;;;;;;4978561;28;20404;-81
2022/12/15 13:59:46;;;;;;;42.80;16.90;;;;;;;;;;4978805;28;20038;-81
2022/12/15 14:02:35;;;;;;;40.53;14.95;;;;;;;;;;4978546;28;20043;-81
2022/12/15 14:05:19;;;;;;;44.67;18.45;;;;;;;;;;4978794;28;20054;-81
2022/12/15 14:07:48;;;;;;;42.63;17.15;;;;;;;;;;4978406;28;20023;-81
2022/12/15 14:10:21;;;;;;;36.05;14.60;;;;;;;;;;4978521;28;20034;-80
2022/12/15 14:12:48;;;;;;;47.07;17.10;;;;;;;;;;4978579;28;20034;-80
2022/12/15 14:15:15;;;;;;;43.45;16.83;;;;;;;;;;4978868;28;20444;-79
2022/12/15 14:17:45;;;;;;;37.22;16.77;;;;;;;;;;4979389;28;20038;-81
2022/12/15 14:20:17;;;;;;;33.95;15.48;;;;;;;;;;4978741;28;20061;-80
2022/12/15 14:22:42;;;;;;;40.65;15.23;;;;;;;;;;4978355;28;20085;-80
2022/12/15 14:25:22;;;;;;;33.80;14.85;;;;;;;;;;4979108;28;20117;-80
2022/12/15 14:27:48;;;;;;;32.63;14.40;;;;;;;;;;4978436;28;20026;-80
2022/12/15 14:30:21;;;;;;;32.30;13.75;;;;;;;;;;4978363;28;20037;-82
2022/12/15 14:32:52;;;;;;;35.95;15.18;;;;;;;;;;4978535;28;20037;-82
2022/12/15 14:35:24;;;;;;;33.15;14.85;;;;;;;;;;4978847;28;20368;-82
2022/12/15 14:37:50;;;;;;;32.35;14.40;;;;;;;;;;4978402;28;20030;-82
2022/12/15 14:40:17;;;;;;;35.50;14.77;;;;;;;;;;4976520;28;20027;-79
2022/12/15 14:42:45;;;;;;;34.60;14.60;;;;;;;;;;4977646;28;20029;-80
2022/12/15 14:45:19;;;;;;;35.60;14.60;;;;;;;;;;4977993;28;20476;-78
2022/12/15 14:47:51;;;;;;;33.20;14.73;;;;;;;;;;4977572;28;20031;-80
2022/12/15 14:50:18;;;;;;;41.95;14.48;;;;;;;;;;4976622;28;20485;-81
2022/12/15 14:52:43;;;;;;;35.70;13.70;;;;;;;;;;4977756;28;20027;-81
2022/12/15 14:55:27;;;;;;;28.38;12.57;;;;;;;;;;4977765;28;20027;-80
2022/12/15 14:57:52;;;;;;;37.08;13.50;;;;;;;;;;4975975;28;20030;-81
2022/12/15 15:00:33;;;;;;;36.22;13.07;;;;;;;;;;4977676;28;20039;-80
2022/12/15 15:03:13;;;;;;;29.95;13.18;;;;;;;;;;4977653;28;20031;-80
2022/12/15 15:05:41;;;;;;;35.30;14.20;;;;;;;;;;4977694;28;20033;-80
2022/12/15 15:08:13;;;;;;;30.83;13.43;;;;;;;;;;4976279;28;20056;-80
2022/12/15 15:10:40;;;;;;;42.08;13.77;;;;;;;;;;4977647;28;20034;-80
2022/12/15 15:13:24;;;;;;;43.42;15.55;;;;;;;;;;4977042;28;20392;-81
2022/12/15 15:15:52;;;;;;;38.55;14.43;;;;;;;;;;4977715;28;20050;-79
2022/12/15 15:18:23;;;;;;;36.95;13.48;;;;;;;;;;4976202;28;20081;-81
2022/12/15 15:20:56;;;;;;;30.98;14.55;;;;;;;;;;4976961;28;20027;-80
2022/12/15 15:23:21;;;;;;;45.45;16.27;;;;;;;;;;4978018;28;20445;-80
2022/12/15 15:26:16;;;;;;;40.25;17.02;;;;;;;;;;4975995;28;20218;-81
2022/12/15 15:28:43;;;;;;;37.25;16.13;;;;;;;;;;4960446;28;20093;-81
2022/12/15 15:31:26;;;;;;;37.88;15.32;;;;;;;;;;4977646;28;20034;-80
2022/12/15 15:33:55;;;;;;;42.67;16.92;;;;;;;;;;4977051;28;20034;-82
2022/12/15 15:36:23;;;;;;;35.88;14.70;;;;;;;;;;4975681;28;20118;-80
2022/12/15 15:38:48;;;;;;;35.17;15.13;;;;;;;;;;4975800;28;20022;-80
2022/12/15 15:41:27;;;;;;;37.42;14.43;;;;;;;;;;4976308;28;20488;-80
2022/12/15 15:43:52;;;;;;;41.08;14.93;;;;;;;;;;4976463;28;20031;-81
2022/12/15 15:46:24;;;;;;;43.97;16.13;;;;;;;;;;4975918;28;20458;-81
2022/12/15 15:48:54;;;;;;;39.05;15.73;;;;;;;;;;4976910;28;20029;-81
2022/12/15 15:51:20;;;;;;;37.95;15.55;;;;;;;;;;4980633;28;20030;-82
2022/12/15 15:53:48;;;;;;;33.60;14.23;;;;;;;;;;4979614;28;20484;-80
2022/12/15 15:56:15;;;;;;;45.95;16.67;;;;;;;;;;4981012;28;20058;-80
2022/12/15 15:58:42;;;;;;;42.80;16.23;;;;;;;;;;4980014;28;20054;-82
2022/12/15 16:01:08;;;;;;;29.98;14.60;;;;;;;;;;4981035;28;20061;-80
2022/12/15 16:03:34;;;;;;;35.10;16.02;;;;;;;;;;4980790;28;20023;-82
2022/12/15 16:06:00;;;;;;;39.80;15.98;;;;;;;;;;4980545;28;20034;-80
2022/12/15 16:08:30;;;;;;;34.67;15.60;;;;;;;;;;4980223;28;20026;-81
2022/12/15 16:10:55;;;;;;;38.50;14.85;;;;;;;;;;4982119;28;20038;-82
2022/12/15 16:13:21;;;;;;;39.03;15.68;;;;;;;;;;4980885;28;20400;-81
2022/12/15 16:15:47;;;;;;;44.78;17.58;;;;;;;;;;4980835;28;20109;-80
2022/12/15 16:18:12;;;;;;;39.63;17.33;;;;;;;;;;4980752;28;20507;-80
2022/12/15 16:20:41;;;;;;;36.05;16.02;;;;;;;;;;4979049;28;20029;-80
2022/12/15 16:23:12;;;;;;;40.13;17.20;;;;;;;;;;4980697;28;20392;-80
2022/12/15 16:25:44;;;;;;;39.20;16.60;;;;;;;;;;4980802;28;20033;-80
2022/12/15 16:28:21;;;;;;;39.70;16.92;;;;;;;;;;4980218;28;20034;-81
2022/12/15 16:30:46;;;;;;;41.60;16.73;;;;;;;;;;4980416;28;20027;-80
2022/12/15 16:33:13;;;;;;;33.17;13.68;;;;;;;;;;4978755;28;20029;-80
2022/12/15 16:35:40;;;;;;;38.55;14.18;;;;;;;;;;4979028;28;20030;-80
2022/12/15 16:38:11;;;;;;;35.75;13.85;;;;;;;;;;4979383;28;20018;-80
2022/12/15 16:40:37;;;;;;;96.50;31.52;;;;;;;;;;4978852;28;20022;-81
2022/12/15 16:43:13;;;;;;;49.22;21.02;;;;;;;;;;4979968;28;20077;-82
2022/12/15 16:45:43;;;;;;;63.85;24.88;;;;;;;;;;4979067;28;20023;-81
2022/12/15 16:48:08;;;;;;;56.35;20.55;;;;;;;;;;4979902;28;20094;-80
2022/12/15 16:50:36;;;;;;;42.15;16.15;;;;;;;;;;4983518;28;20054;-80
2022/12/15 16:53:03;;;;;;;43.17;15.50;;;;;;;;;;4981121;28;20062;-81
2022/12/15 16:55:30;;;;;;;40.35;15.32;;;;;;;;;;4981029;28;20027;-80
2022/12/15 16:58:01;;;;;;;38.03;14.82;;;;;;;;;;4980752;28;20502;-80
2022/12/15 17:00:30;;;;;;;42.15;15.80;;;;;;;;;;4981356;28;20404;-81
2022/12/15 17:02:56;;;;;;;39.00;16.85;;;;;;;;;;4981378;28;20022;-80
2022/12/15 17:05:24;;;;;;;49.92;17.80;;;;;;;;;;4980577;28;20100;-80
2022/12/15 17:07:53;;;;;;;51.20;17.95;;;;;;;;;;4978944;28;20090;-81